Latest Weather Observations for Melbourne (Olympic Park)

IDV60901

Issued at 10:51 pm EST Saturday 30 July 2016 (issued every 10 minutes, with the page automatically refreshed every 10 minutes)

About weather observations | Map of Melbourne area stations | Latest observations for Melbourne area | Other Formats
Station Details ID: 086338 Name: MELBOURNE (OLYMPIC PARK) Lat: -37.83 Lon: 144.98 Height: 7.53 m
Data from the previous 72 hours. | See also: Recent months at Melbourne (Olympic Park)
Date/Time
EST
Temp
°C
App
Temp
°C
Dew
Point
°C
Rel
Hum
%
Delta-T
°C
Wind Press
QNH
hPa
Press
MSL
hPa
Rain since
9am
mm
Dir  Spd
km/h
Gust
km/h
Spd
kts
Gust
kts
30/10:36pm 12.0 6.2 8.1 77 1.9 N 28 46 15 25 1014.6 1014.6 0.0
30/10:30pm 12.2 6.4 8.1 76 2.0 N 28 44 15 24 1014.5 1014.5 0.0
30/10:07pm 12.3 6.5 8.0 75 2.1 N 28 46 15 25 1014.9 1014.9 0.0
30/10:00pm 12.4 6.6 7.9 74 2.2 N 28 44 15 24 1015.3 1015.3 0.0
30/09:43pm 12.3 6.5 8.0 75 2.1 N 28 46 15 25 1015.3 1015.3 0.0
30/09:30pm 12.3 6.6 8.2 76 2.0 N 28 44 15 24 1015.3 1015.3 0.0
30/09:00pm 12.4 5.6 7.9 74 2.2 N 33 56 18 30 1014.6 1014.6 0.0
30/08:30pm 12.4 6.6 7.9 74 2.2 N 28 48 15 26 1014.1 1014.1 0.0
30/08:16pm 12.4 6.2 7.7 73 2.3 N 30 48 16 26 1013.7 1013.7 0.0
30/08:00pm 12.5 5.9 7.8 73 2.3 N 32 46 17 25 1013.7 1013.7 0.0
30/07:56pm 12.5 6.7 7.8 73 2.3 N 28 46 15 25 1013.7 1013.7 0.0
30/07:30pm 12.2 7.2 7.9 75 2.1 N 24 35 13 19 1014.8 1014.8 0.0
30/07:00pm 12.2 6.4 7.9 75 2.1 N 28 41 15 22 1015.1 1015.1 0.0
30/06:30pm 12.4 6.2 7.7 73 2.3 N 30 48 16 26 1014.8 1014.8 0.0
30/06:02pm 12.2 6.3 7.7 74 2.2 N 28 46 15 25 1014.4 1014.4 0.0
30/06:00pm 12.1 6.6 7.6 74 2.2 N 26 46 14 25 1014.3 1014.3 0.0
30/05:57pm 12.1 6.2 7.6 74 2.2 N 28 46 15 25 1015.4 - 0.0
30/05:56pm 12.2 6.3 7.7 74 2.2 N 28 46 15 25 1014.5 1014.5 0.0
30/05:30pm 12.1 6.9 7.4 73 2.3 N 24 39 13 21 1014.6 1014.6 0.0
30/05:00pm 12.0 6.9 7.7 75 2.1 N 24 37 13 20 1015.0 1015.0 0.0
30/04:41pm 12.1 6.2 7.6 74 2.2 N 28 46 15 25 1015.2 1015.2 0.0
30/04:30pm 12.2 7.1 7.7 74 2.2 N 24 37 13 20 1015.5 1015.5 0.0
30/04:00pm 12.2 7.2 8.1 76 2.0 N 24 41 13 22 1015.8 1015.8 0.0
30/03:30pm 12.4 7.4 8.1 75 2.1 N 24 39 13 21 1016.4 1016.4 0.0
30/03:00pm 12.6 6.8 8.1 74 2.2 N 28 48 15 26 1016.6 1016.6 0.0
30/02:37pm 12.6 6.8 8.1 74 2.2 N 28 46 15 25 1017.4 - 0.0
30/02:35pm 12.7 7.0 8.2 74 2.2 N 28 46 15 25 1016.5 1016.5 0.0
30/02:30pm 12.7 6.5 8.0 73 2.3 N 30 46 16 25 1016.3 1016.3 0.0
30/02:00pm 13.0 7.7 8.5 74 2.2 N 26 39 14 21 1017.3 1017.3 0.0
30/01:43pm 13.1 7.4 8.2 72 2.4 N 28 48 15 26 1017.3 1017.3 0.0
30/01:30pm 13.4 8.2 8.7 73 2.4 N 26 41 14 22 1017.7 1017.7 0.0
30/01:00pm 13.1 9.2 8.8 75 2.2 N 19 26 10 14 1018.2 1018.2 0.0
30/12:30pm 13.6 8.8 8.9 73 2.4 N 24 37 13 20 1018.8 1018.8 0.0
30/12:00pm 13.4 8.2 8.7 73 2.4 N 26 41 14 22 1019.1 1019.1 0.0
30/11:30am 13.4 8.1 8.5 72 2.4 N 26 37 14 20 1019.2 1019.2 0.0
30/11:00am 13.1 7.5 8.8 75 2.2 N 28 39 15 21 1019.9 1019.9 0.0
30/10:30am 13.3 8.5 9.0 75 2.2 N 24 41 13 22 1020.2 1020.2 0.0
30/10:00am 12.7 8.6 8.8 77 1.9 N 20 33 11 18 1020.6 1020.6 0.0
30/09:30am 11.7 7.8 8.7 82 1.5 N 19 28 10 15 1021.0 1021.0 0.0
30/09:00am 11.2 7.3 8.8 85 1.2 N 19 30 10 16 1021.0 1021.0 2.4
30/08:30am 10.8 7.7 8.7 87 1.0 N 15 22 8 12 1021.0 1021.0 2.4
30/08:00am 9.9 7.9 8.7 92 0.6 N 9 13 5 7 1021.0 1021.0 2.4
30/07:30am 9.6 7.1 8.4 92 0.6 N 11 19 6 10 1021.2 1021.2 2.4
30/07:00am 9.4 7.7 8.5 94 0.4 N 7 11 4 6 1021.4 1021.4 2.4
30/06:30am 9.6 7.6 8.7 94 0.4 NNE 9 13 5 7 1021.3 1021.3 2.4
30/06:00am 9.9 8.3 8.8 93 0.5 NNE 7 11 4 6 1021.3 1021.3 2.4
30/05:30am 10.3 8.7 8.9 91 0.7 NNE 7 9 4 5 1021.3 1021.3 2.4
30/05:00am 10.5 9.2 9.1 91 0.7 NNE 6 7 3 4 1021.3 1021.3 2.4
30/04:30am 10.4 8.9 9.0 91 0.7 N 7 9 4 5 1021.3 1021.3 2.4
30/04:00am 10.4 8.0 8.8 90 0.8 NNE 11 15 6 8 1021.3 1021.3 2.4
30/03:30am 10.3 8.4 9.1 92 0.6 N 9 13 5 7 1021.2 1021.2 2.4
30/03:00am 9.8 8.6 9.5 98 0.1 NE 6 11 3 6 1021.4 1021.4 2.4
30/02:30am 9.2 8.9 8.6 96 0.3 CALM 0 0 0 0 1021.7 1021.7 2.4
30/02:00am 10.4 8.7 8.5 88 0.9 N 7 11 4 6 1021.8 1021.8 2.4
30/01:30am 9.8 8.7 8.4 91 0.7 WNW 4 11 2 6 1021.8 1021.8 2.4
30/01:00am 9.7 8.7 8.8 94 0.4 NNW 4 7 2 4 1021.9 1021.9 2.4
30/12:30am 10.2 10.0 9.1 93 0.5 CALM 0 7 0 4 1021.8 1021.8 2.4
30/12:00am 11.5 10.3 9.4 87 1.1 NNW 6 7 3 4 1021.9 1021.9 2.4
 
Date/Time
EST
Temp
°C
App
Temp
°C
Dew
Point
°C
Rel
Hum
%
Delta-T
°C
Wind Press
QNH
hPa
Press
MSL
hPa
Rain since
9am
mm
Dir  Spd
km/h
Gust
km/h
Spd
kts
Gust
kts
29/11:30pm 11.5 10.2 9.8 89 0.9 N 7 9 4 5 1022.0 1022.0 2.4
29/11:00pm 11.3 10.3 10.4 94 0.5 NNW 6 7 3 4 1022.0 1022.0 2.4
29/10:30pm 10.6 9.9 10.0 96 0.3 NNW 4 9 2 5 1022.0 1022.0 2.4
29/10:00pm 10.6 9.3 10.0 96 0.3 NNW 7 9 4 5 1022.1 1022.1 2.4
29/09:30pm 10.7 10.3 9.6 93 0.6 NW 2 7 1 4 1021.9 1021.9 2.4
29/09:00pm 11.6 10.9 10.2 91 0.7 NW 4 7 2 4 1021.8 1021.8 2.4
29/08:30pm 11.8 11.2 10.4 91 0.7 WNW 4 7 2 4 1021.8 1021.8 2.4
29/08:00pm 12.2 11.2 10.4 89 0.9 NW 6 9 3 5 1021.7 1021.7 2.4
29/07:30pm 12.3 10.8 10.4 88 1.0 NNW 9 13 5 7 1021.4 1021.4 2.4
29/07:00pm 12.7 11.6 10.1 84 1.3 WNW 6 11 3 6 1021.1 1021.1 2.4
29/06:30pm 12.8 11.2 10.2 84 1.3 WNW 9 15 5 8 1020.8 1020.8 2.4
29/06:00pm 12.9 11.4 10.6 86 1.2 NW 9 15 5 8 1020.5 1020.5 2.4
29/05:30pm 12.7 11.0 11.1 90 0.8 NNW 11 19 6 10 1020.4 1020.4 2.4
29/05:00pm 12.8 11.9 11.2 90 0.8 NW 7 17 4 9 1020.1 1020.1 2.4
29/04:30pm 12.5 11.2 11.1 91 0.7 W 9 17 5 9 1020.2 1020.2 2.4
29/04:29pm 12.5 11.6 11.2 92 0.7 W 7 17 4 9 1021.0 - 2.4
29/04:00pm 12.4 9.6 10.1 86 1.2 WSW 15 30 8 16 1020.2 1020.2 1.6
29/03:53pm 13.5 9.9 9.7 78 1.9 WSW 19 30 10 16 1020.9 - 1.4
29/03:30pm 15.1 12.7 8.8 66 3.2 NW 11 20 6 11 1019.4 1019.4 0.2
29/03:00pm 15.2 12.9 9.1 67 3.1 WNW 11 19 6 10 1019.3 1019.3 0.2
29/02:30pm 14.5 13.3 10.3 76 2.2 N 7 11 4 6 1019.3 1019.3 0.2
29/02:01pm 13.1 11.0 11.2 88 1.0 N 13 20 7 11 1020.4 - 0.2
29/02:00pm 13.0 10.9 11.1 88 1.0 N 13 17 7 9 1019.5 1019.5 0.2
29/01:30pm 12.8 11.0 9.6 81 1.6 NNW 9 15 5 8 1020.0 1020.0 0.0
29/01:27pm 12.7 10.5 9.5 81 1.6 N 11 17 6 9 1021.0 - 0.0
29/01:00pm 13.2 11.2 8.7 74 2.2 N 9 22 5 12 1020.2 1020.2 0.0
29/12:30pm 14.1 11.9 7.9 66 3.1 NNW 9 15 5 8 1020.3 1020.3 0.0
29/12:00pm 14.1 11.5 7.9 66 3.1 N 11 19 6 10 1020.6 1020.6 0.0
29/11:30am 13.9 10.9 7.7 66 3.1 NNW 13 20 7 11 1020.9 1020.9 0.0
29/11:00am 13.3 9.7 8.2 71 2.5 NNW 17 26 9 14 1020.9 1020.9 0.0
29/10:30am 13.1 9.8 8.0 71 2.5 NNW 15 28 8 15 1021.3 1021.3 0.0
29/10:00am 12.5 8.7 7.6 72 2.4 NNW 17 30 9 16 1021.1 1021.1 0.0
29/09:30am 12.3 8.6 7.8 74 2.2 N 17 28 9 15 1021.5 1021.5 0.0
29/09:00am 11.8 8.4 7.7 76 2.0 N 15 22 8 12 1021.4 1021.4 0.0
29/08:30am 11.4 7.2 7.3 76 2.0 N 19 28 10 15 1021.4 1021.4 0.0
29/08:00am 11.1 7.2 7.0 76 1.9 N 17 24 9 13 1021.2 1021.2 0.0
29/07:30am 11.1 8.0 7.2 77 1.9 N 13 28 7 15 1021.0 1021.0 0.0
29/07:00am 11.2 7.7 7.1 76 1.9 N 15 26 8 14 1020.8 1020.8 0.0
29/06:30am 11.3 7.4 7.0 75 2.0 N 17 22 9 12 1020.8 1020.8 0.0
29/06:00am 11.2 7.2 6.7 74 2.1 N 17 24 9 13 1020.6 1020.6 0.0
29/05:30am 11.2 7.2 6.7 74 2.1 N 17 24 9 13 1020.9 1020.9 0.0
29/05:00am 11.3 8.0 6.6 73 2.2 N 13 20 7 11 1021.1 1021.1 0.0
29/04:30am 11.1 7.5 6.6 74 2.1 N 15 20 8 11 1020.9 1020.9 0.0
29/04:00am 11.0 7.0 6.6 74 2.1 N 17 24 9 13 1020.9 1020.9 0.0
29/03:30am 11.3 7.6 6.2 71 2.4 N 15 22 8 12 1020.9 1020.9 0.0
29/03:00am 11.7 8.0 6.4 70 2.5 N 15 24 8 13 1021.2 1021.2 0.0
29/02:30am 11.8 7.7 6.3 69 2.6 NNW 17 24 9 13 1021.6 1021.6 0.0
29/02:00am 11.9 7.9 6.6 70 2.5 N 17 26 9 14 1021.5 1021.5 0.0
29/01:30am 12.0 8.4 6.9 71 2.4 NNW 15 24 8 13 1021.8 1021.8 0.0
29/01:00am 11.6 8.8 7.1 74 2.1 N 11 15 6 8 1022.1 1022.1 0.0
29/12:30am 11.2 7.7 7.1 76 2.0 N 15 20 8 11 1022.0 1022.0 0.0
29/12:00am 11.0 7.5 7.1 77 1.8 N 15 26 8 14 1022.3 1022.3 0.0
 
Date/Time
EST
Temp
°C
App
Temp
°C
Dew
Point
°C
Rel
Hum
%
Delta-T
°C
Wind Press
QNH
hPa
Press
MSL
hPa
Rain since
9am
mm
Dir  Spd
km/h
Gust
km/h
Spd
kts
Gust
kts
28/11:30pm 11.2 7.3 7.1 76 2.0 N 17 30 9 16 1022.5 1022.5 0.0
28/11:00pm 11.4 7.9 7.3 76 2.0 N 15 24 8 13 1023.0 1023.0 0.0
28/10:30pm 11.7 7.8 7.2 74 2.2 NNW 17 24 9 13 1023.1 1023.1 0.0
28/10:00pm 11.9 8.4 7.0 72 2.3 NNW 15 24 8 13 1023.3 1023.3 0.0
28/09:30pm 12.1 8.5 6.8 70 2.5 N 15 22 8 12 1023.1 1023.1 0.0
28/09:00pm 12.4 8.8 6.7 68 2.7 NNW 15 24 8 13 1023.2 1023.2 0.0
28/08:30pm 12.5 9.2 6.5 67 2.9 N 13 20 7 11 1023.1 1023.1 0.0
28/08:00pm 12.6 9.3 6.6 67 2.8 N 13 20 7 11 1023.3 1023.3 0.0
28/07:30pm 12.6 9.1 7.1 69 2.7 N 15 20 8 11 1023.4 1023.4 0.0
28/07:00pm 12.5 9.0 7.0 69 2.6 NNW 15 22 8 12 1023.5 1023.5 0.0
28/06:30pm 12.7 8.7 6.7 67 2.9 N 17 26 9 14 1023.1 1023.1 0.0
28/06:00pm 13.2 9.6 6.8 65 3.1 N 15 24 8 13 1022.7 1022.7 0.0
28/05:30pm 13.3 10.1 6.9 65 3.1 N 13 20 7 11 1022.6 1022.6 0.0
28/05:00pm 14.0 11.2 7.1 63 3.3 NNW 11 20 6 11 1022.4 1022.4 0.0
28/04:30pm 15.0 10.4 5.8 54 4.4 NNW 19 35 10 19 1022.3 1022.3 0.0
28/04:00pm 15.0 12.3 5.8 54 4.4 WNW 9 17 5 9 1022.3 1022.3 0.0
28/03:30pm 15.0 10.8 5.8 54 4.4 NW 17 33 9 18 1022.3 1022.3 0.0
28/03:00pm 15.1 11.6 5.3 52 4.6 WNW 13 26 7 14 1022.3 1022.3 0.0
28/02:30pm 14.9 11.5 5.7 54 4.4 NW 13 20 7 11 1022.3 1022.3 0.0
28/02:00pm 14.8 11.8 6.1 56 4.2 NW 11 17 6 9 1022.4 1022.4 0.0
28/01:30pm 14.5 10.3 5.8 56 4.1 NW 17 30 9 16 1022.6 1022.6 0.0
28/01:00pm 14.3 10.5 5.7 56 4.1 NW 15 28 8 15 1023.0 1023.0 0.0
28/12:30pm 14.4 10.6 5.7 56 4.1 WNW 15 24 8 13 1023.1 1023.1 0.0
28/12:00pm 14.5 11.5 6.1 57 4.0 WNW 11 24 6 13 1023.3 1023.3 0.0
28/11:30am 14.0 9.4 5.6 57 4.0 NNW 19 30 10 16 1023.6 1023.6 0.0
28/11:00am 13.6 9.8 6.0 60 3.6 NNW 15 26 8 14 1023.9 1023.9 0.0
28/10:30am 12.8 9.5 6.4 65 3.0 N 13 20 7 11 1024.0 1024.0 0.0
28/10:00am 11.9 9.0 6.4 69 2.6 N 11 17 6 9 1024.1 1024.1 0.0
28/09:30am 11.6 8.0 6.7 72 2.3 N 15 20 8 11 1024.0 1024.0 0.0
28/09:00am 10.2 6.4 5.6 73 2.1 N 15 20 8 11 1023.7 1023.7 0.0
28/08:30am 9.3 5.8 5.5 77 1.7 N 13 20 7 11 1023.7 1023.7 0.0
28/08:00am 8.1 4.5 4.9 80 1.4 N 13 20 7 11 1023.7 1023.7 0.0
28/07:30am 7.6 3.9 4.6 81 1.3 N 13 19 7 10 1023.5 1023.5 0.0
28/07:00am 8.0 5.5 4.9 81 1.4 NNW 7 15 4 8 1023.3 1023.3 0.0
28/06:30am 8.4 6.2 5.2 80 1.4 NNE 6 11 3 6 1023.0 1023.0 0.0
28/06:00am 9.2 6.5 5.6 78 1.6 NW 9 17 5 9 1022.7 1022.7 0.0
28/05:30am 8.2 5.7 4.8 79 1.5 N 7 11 4 6 1022.6 1022.6 0.0
28/05:00am 7.6 6.5 5.2 85 1.1 CALM 0 7 0 4 1022.5 1022.5 0.0
28/04:30am 6.9 5.3 4.7 86 1.0 WNW 2 6 1 3 1022.3 1022.3 0.0
28/04:00am 7.8 5.3 4.9 82 1.3 NE 7 13 4 7 1022.2 1022.2 0.0
28/03:30am 7.9 5.0 4.8 81 1.4 NNW 9 15 5 8 1022.1 1022.1 0.0
28/03:00am 7.8 5.3 4.7 81 1.4 NNW 7 11 4 6 1022.2 1022.2 0.0
28/02:30am 7.7 5.3 4.5 80 1.4 N 6 11 3 6 1022.4 1022.4 0.0
28/02:00am 8.3 5.8 4.9 79 1.5 NNW 7 11 4 6 1022.3 1022.3 0.0
28/01:30am 8.3 6.0 4.7 78 1.6 NE 6 7 3 4 1022.4 1022.4 0.0
28/01:00am 8.7 5.8 4.7 76 1.8 N 9 15 5 8 1022.1 1022.1 0.0
28/12:30am 9.4 6.2 5.0 74 2.0 NNW 11 15 6 8 1022.1 1022.1 0.0
28/12:00am 9.8 6.2 4.8 71 2.2 NW 13 20 7 11 1022.2 1022.2 0.0
 
Date/Time
EST
Temp
°C
App
Temp
°C
Dew
Point
°C
Rel
Hum
%
Delta-T
°C
Wind Press
QNH
hPa
Press
MSL
hPa
Rain since
9am
mm
Dir  Spd
km/h
Gust
km/h
Spd
kts
Gust
kts
27/11:30pm 9.6 6.7 4.8 72 2.1 NW 9 17 5 9 1022.3 1022.3 0.0
27/11:00pm 9.6 5.9 4.6 71 2.2 NNW 13 22 7 12 1022.1 1022.1 0.0

Latest Capital City Observations: Canberra | Sydney | Melbourne | Brisbane | Adelaide | Perth | Hobart | Darwin

Other Formats:

Comma delimited format used in spreadsheet applications
http://www.bom.gov.au/fwo/IDV60901/IDV60901.95936.axf

JavaScript Object Notation format (JSON) in row-major order
http://www.bom.gov.au/fwo/IDV60901/IDV60901.95936.json